sensor_id;sensor_type;location;lat;lon;timestamp;P1;durP1;ratioP1;P2;durP2;ratioP2
62977;SDS011;49073;42.352;23.808;2022-08-25T00:00:58;14.63;;;5.65;;
62977;SDS011;49073;42.352;23.808;2022-08-25T00:04:00;17.52;;;6.03;;
62977;SDS011;49073;42.352;23.808;2022-08-25T00:07:02;18.25;;;6.13;;
62977;SDS011;49073;42.352;23.808;2022-08-25T00:10:05;14.07;;;6.18;;
62977;SDS011;49073;42.352;23.808;2022-08-25T00:13:07;13.63;;;5.45;;
62977;SDS011;49073;42.352;23.808;2022-08-25T00:16:12;19.30;;;5.97;;
62977;SDS011;49073;42.352;23.808;2022-08-25T00:19:15;11.07;;;5.78;;
62977;SDS011;49073;42.352;23.808;2022-08-25T00:22:19;15.48;;;6.00;;
62977;SDS011;49073;42.352;23.808;2022-08-25T00:25:20;16.08;;;6.72;;
62977;SDS011;49073;42.352;23.808;2022-08-25T00:28:22;26.80;;;7.72;;
62977;SDS011;49073;42.352;23.808;2022-08-25T00:31:23;14.35;;;6.43;;
62977;SDS011;49073;42.352;23.808;2022-08-25T00:34:25;19.25;;;7.43;;
62977;SDS011;49073;42.352;23.808;2022-08-25T00:37:30;13.68;;;6.00;;
62977;SDS011;49073;42.352;23.808;2022-08-25T00:40:30;21.00;;;6.82;;
62977;SDS011;49073;42.352;23.808;2022-08-25T00:46:42;17.23;;;7.00;;
62977;SDS011;49073;42.352;23.808;2022-08-25T00:49:53;19.95;;;6.53;;
62977;SDS011;49073;42.352;23.808;2022-08-25T00:52:58;18.92;;;6.70;;
62977;SDS011;49073;42.352;23.808;2022-08-25T00:56:05;16.92;;;7.00;;
62977;SDS011;49073;42.352;23.808;2022-08-25T00:59:06;19.58;;;6.95;;
62977;SDS011;49073;42.352;23.808;2022-08-25T01:02:07;24.38;;;7.20;;
62977;SDS011;49073;42.352;23.808;2022-08-25T01:05:10;17.40;;;7.60;;
62977;SDS011;49073;42.352;23.808;2022-08-25T01:08:11;15.10;;;6.97;;
62977;SDS011;49073;42.352;23.808;2022-08-25T01:11:12;16.77;;;6.55;;
62977;SDS011;49073;42.352;23.808;2022-08-25T01:14:14;15.20;;;6.93;;
62977;SDS011;49073;42.352;23.808;2022-08-25T01:17:16;19.48;;;7.75;;
62977;SDS011;49073;42.352;23.808;2022-08-25T01:20:17;16.88;;;6.95;;
62977;SDS011;49073;42.352;23.808;2022-08-25T01:23:20;18.67;;;6.65;;
62977;SDS011;49073;42.352;23.808;2022-08-25T01:26:22;22.10;;;7.90;;
62977;SDS011;49073;42.352;23.808;2022-08-25T01:29:25;20.45;;;8.60;;
62977;SDS011;49073;42.352;23.808;2022-08-25T01:32:26;23.08;;;7.68;;
62977;SDS011;49073;42.352;23.808;2022-08-25T01:35:27;21.83;;;7.93;;
62977;SDS011;49073;42.352;23.808;2022-08-25T01:38:27;21.10;;;7.38;;
62977;SDS011;49073;42.352;23.808;2022-08-25T01:44:28;19.27;;;8.00;;
62977;SDS011;49073;42.352;23.808;2022-08-25T01:47:30;20.02;;;7.88;;
62977;SDS011;49073;42.352;23.808;2022-08-25T01:50:31;13.10;;;8.45;;
62977;SDS011;49073;42.352;23.808;2022-08-25T01:53:32;16.15;;;8.48;;
62977;SDS011;49073;42.352;23.808;2022-08-25T01:56:32;19.90;;;7.57;;
62977;SDS011;49073;42.352;23.808;2022-08-25T01:59:34;19.42;;;8.10;;
62977;SDS011;49073;42.352;23.808;2022-08-25T02:02:35;21.85;;;7.22;;
62977;SDS011;49073;42.352;23.808;2022-08-25T02:05:35;12.85;;;6.53;;
62977;SDS011;49073;42.352;23.808;2022-08-25T02:08:36;16.20;;;7.15;;
62977;SDS011;49073;42.352;23.808;2022-08-25T02:11:38;24.80;;;7.63;;
62977;SDS011;49073;42.352;23.808;2022-08-25T02:14:40;16.58;;;7.03;;
62977;SDS011;49073;42.352;23.808;2022-08-25T02:17:40;20.63;;;7.60;;
62977;SDS011;49073;42.352;23.808;2022-08-25T02:20:41;13.85;;;7.00;;
62977;SDS011;49073;42.352;23.808;2022-08-25T02:23:42;16.55;;;7.65;;
62977;SDS011;49073;42.352;23.808;2022-08-25T02:26:42;20.42;;;7.40;;
62977;SDS011;49073;42.352;23.808;2022-08-25T02:29:44;12.38;;;7.10;;
62977;SDS011;49073;42.352;23.808;2022-08-25T02:32:47;20.10;;;7.97;;
62977;SDS011;49073;42.352;23.808;2022-08-25T02:35:47;14.10;;;6.38;;
62977;SDS011;49073;42.352;23.808;2022-08-25T02:38:48;16.83;;;7.35;;
62977;SDS011;49073;42.352;23.808;2022-08-25T02:41:49;19.23;;;7.30;;
62977;SDS011;49073;42.352;23.808;2022-08-25T02:44:50;15.88;;;8.02;;
62977;SDS011;49073;42.352;23.808;2022-08-25T02:47:51;12.55;;;7.85;;
62977;SDS011;49073;42.352;23.808;2022-08-25T02:50:53;17.55;;;7.55;;
62977;SDS011;49073;42.352;23.808;2022-08-25T02:53:54;17.63;;;7.95;;
62977;SDS011;49073;42.352;23.808;2022-08-25T02:56:56;16.48;;;7.35;;
62977;SDS011;49073;42.352;23.808;2022-08-25T02:59:58;16.67;;;8.15;;
62977;SDS011;49073;42.352;23.808;2022-08-25T03:02:58;16.95;;;7.35;;
62977;SDS011;49073;42.352;23.808;2022-08-25T03:05:59;14.43;;;8.32;;
62977;SDS011;49073;42.352;23.808;2022-08-25T03:09:01;14.65;;;8.18;;
62977;SDS011;49073;42.352;23.808;2022-08-25T03:12:02;13.85;;;8.70;;
62977;SDS011;49073;42.352;23.808;2022-08-25T03:15:03;12.93;;;8.38;;
62977;SDS011;49073;42.352;23.808;2022-08-25T03:18:04;13.85;;;8.35;;
62977;SDS011;49073;42.352;23.808;2022-08-25T03:21:05;12.93;;;8.45;;
62977;SDS011;49073;42.352;23.808;2022-08-25T03:24:06;12.38;;;7.90;;
62977;SDS011;49073;42.352;23.808;2022-08-25T03:27:07;24.00;;;9.82;;
62977;SDS011;49073;42.352;23.808;2022-08-25T03:30:08;21.50;;;9.52;;
62977;SDS011;49073;42.352;23.808;2022-08-25T03:33:09;15.52;;;10.10;;
62977;SDS011;49073;42.352;23.808;2022-08-25T03:36:10;18.52;;;9.60;;
62977;SDS011;49073;42.352;23.808;2022-08-25T03:39:15;20.88;;;10.15;;
62977;SDS011;49073;42.352;23.808;2022-08-25T03:42:17;16.88;;;10.20;;
62977;SDS011;49073;42.352;23.808;2022-08-25T03:45:18;18.50;;;11.30;;
62977;SDS011;49073;42.352;23.808;2022-08-25T03:48:18;20.38;;;10.90;;
62977;SDS011;49073;42.352;23.808;2022-08-25T03:51:23;20.83;;;12.27;;
62977;SDS011;49073;42.352;23.808;2022-08-25T03:54:28;22.30;;;11.23;;
62977;SDS011;49073;42.352;23.808;2022-08-25T03:57:29;15.38;;;11.48;;
62977;SDS011;49073;42.352;23.808;2022-08-25T04:00:29;19.63;;;11.63;;
62977;SDS011;49073;42.352;23.808;2022-08-25T04:03:30;20.50;;;10.95;;
62977;SDS011;49073;42.352;23.808;2022-08-25T04:06:31;18.05;;;11.70;;
62977;SDS011;49073;42.352;23.808;2022-08-25T04:09:32;23.98;;;11.35;;
62977;SDS011;49073;42.352;23.808;2022-08-25T04:12:33;20.65;;;10.90;;
62977;SDS011;49073;42.352;23.808;2022-08-25T04:15:34;20.33;;;12.18;;
62977;SDS011;49073;42.352;23.808;2022-08-25T04:18:35;19.17;;;12.13;;
62977;SDS011;49073;42.352;23.808;2022-08-25T04:21:36;29.90;;;14.23;;
62977;SDS011;49073;42.352;23.808;2022-08-25T04:24:37;20.58;;;11.15;;
62977;SDS011;49073;42.352;23.808;2022-08-25T04:27:38;17.83;;;10.85;;
62977;SDS011;49073;42.352;23.808;2022-08-25T04:30:40;23.77;;;12.18;;
62977;SDS011;49073;42.352;23.808;2022-08-25T04:33:42;20.85;;;12.38;;
62977;SDS011;49073;42.352;23.808;2022-08-25T04:36:43;21.08;;;11.70;;
62977;SDS011;49073;42.352;23.808;2022-08-25T04:39:44;27.13;;;12.93;;
62977;SDS011;49073;42.352;23.808;2022-08-25T04:42:44;17.10;;;10.98;;
62977;SDS011;49073;42.352;23.808;2022-08-25T04:45:45;28.70;;;11.30;;
62977;SDS011;49073;42.352;23.808;2022-08-25T04:48:45;19.10;;;11.02;;
62977;SDS011;49073;42.352;23.808;2022-08-25T04:51:50;21.60;;;10.88;;
62977;SDS011;49073;42.352;23.808;2022-08-25T04:54:51;24.67;;;10.93;;
62977;SDS011;49073;42.352;23.808;2022-08-25T04:57:51;23.23;;;11.43;;
62977;SDS011;49073;42.352;23.808;2022-08-25T05:00:52;23.70;;;10.88;;
62977;SDS011;49073;42.352;23.808;2022-08-25T05:03:58;18.40;;;12.45;;
62977;SDS011;49073;42.352;23.808;2022-08-25T05:07:00;19.98;;;11.00;;
62977;SDS011;49073;42.352;23.808;2022-08-25T05:10:01;19.80;;;12.30;;
62977;SDS011;49073;42.352;23.808;2022-08-25T05:13:01;17.13;;;11.13;;
62977;SDS011;49073;42.352;23.808;2022-08-25T05:16:02;17.20;;;11.35;;
62977;SDS011;49073;42.352;23.808;2022-08-25T05:19:03;18.80;;;11.50;;
62977;SDS011;49073;42.352;23.808;2022-08-25T05:22:03;21.35;;;12.18;;
62977;SDS011;49073;42.352;23.808;2022-08-25T05:25:04;24.65;;;12.88;;
62977;SDS011;49073;42.352;23.808;2022-08-25T05:28:05;20.38;;;12.70;;
62977;SDS011;49073;42.352;23.808;2022-08-25T05:31:07;24.67;;;11.75;;
62977;SDS011;49073;42.352;23.808;2022-08-25T05:34:09;20.55;;;11.50;;
62977;SDS011;49073;42.352;23.808;2022-08-25T05:37:11;19.77;;;11.55;;
62977;SDS011;49073;42.352;23.808;2022-08-25T05:40:11;24.65;;;13.45;;
62977;SDS011;49073;42.352;23.808;2022-08-25T05:43:12;22.33;;;12.45;;
62977;SDS011;49073;42.352;23.808;2022-08-25T05:46:15;26.80;;;11.85;;
62977;SDS011;49073;42.352;23.808;2022-08-25T05:49:17;16.90;;;11.20;;
62977;SDS011;49073;42.352;23.808;2022-08-25T05:52:17;19.30;;;10.75;;
62977;SDS011;49073;42.352;23.808;2022-08-25T05:55:21;20.67;;;11.65;;
62977;SDS011;49073;42.352;23.808;2022-08-25T05:58:21;27.88;;;10.98;;
62977;SDS011;49073;42.352;23.808;2022-08-25T06:01:24;24.45;;;11.63;;
62977;SDS011;49073;42.352;23.808;2022-08-25T06:04:45;19.85;;;10.77;;
62977;SDS011;49073;42.352;23.808;2022-08-25T06:07:47;20.30;;;10.02;;
62977;SDS011;49073;42.352;23.808;2022-08-25T06:10:52;18.70;;;9.95;;
62977;SDS011;49073;42.352;23.808;2022-08-25T06:13:53;18.17;;;9.63;;
62977;SDS011;49073;42.352;23.808;2022-08-25T06:16:54;21.83;;;10.88;;
62977;SDS011;49073;42.352;23.808;2022-08-25T06:19:55;17.42;;;10.40;;
62977;SDS011;49073;42.352;23.808;2022-08-25T06:22:56;24.63;;;10.18;;
62977;SDS011;49073;42.352;23.808;2022-08-25T06:25:57;17.27;;;10.77;;
62977;SDS011;49073;42.352;23.808;2022-08-25T06:28:57;22.10;;;11.07;;
62977;SDS011;49073;42.352;23.808;2022-08-25T06:31:58;19.70;;;10.65;;
62977;SDS011;49073;42.352;23.808;2022-08-25T06:34:58;19.52;;;11.27;;
62977;SDS011;49073;42.352;23.808;2022-08-25T06:37:59;16.58;;;10.73;;
62977;SDS011;49073;42.352;23.808;2022-08-25T06:41:03;23.63;;;10.82;;
62977;SDS011;49073;42.352;23.808;2022-08-25T06:44:10;17.17;;;10.57;;
62977;SDS011;49073;42.352;23.808;2022-08-25T06:47:11;15.98;;;10.80;;
62977;SDS011;49073;42.352;23.808;2022-08-25T06:50:11;23.15;;;11.63;;
62977;SDS011;49073;42.352;23.808;2022-08-25T06:53:12;26.50;;;11.60;;
62977;SDS011;49073;42.352;23.808;2022-08-25T06:56:12;26.98;;;10.80;;
62977;SDS011;49073;42.352;23.808;2022-08-25T06:59:14;20.48;;;10.35;;
62977;SDS011;49073;42.352;23.808;2022-08-25T07:02:16;19.60;;;9.82;;
62977;SDS011;49073;42.352;23.808;2022-08-25T07:05:16;22.13;;;11.93;;
62977;SDS011;49073;42.352;23.808;2022-08-25T07:08:17;22.40;;;11.07;;
62977;SDS011;49073;42.352;23.808;2022-08-25T07:11:18;18.40;;;10.88;;
62977;SDS011;49073;42.352;23.808;2022-08-25T07:14:20;22.33;;;11.75;;
62977;SDS011;49073;42.352;23.808;2022-08-25T07:17:21;19.23;;;10.88;;
62977;SDS011;49073;42.352;23.808;2022-08-25T07:20:22;26.70;;;11.65;;
62977;SDS011;49073;42.352;23.808;2022-08-25T07:23:23;23.55;;;11.43;;
62977;SDS011;49073;42.352;23.808;2022-08-25T07:26:26;15.38;;;10.18;;
62977;SDS011;49073;42.352;23.808;2022-08-25T07:29:29;26.13;;;9.50;;
62977;SDS011;49073;42.352;23.808;2022-08-25T07:32:31;26.27;;;10.77;;
62977;SDS011;49073;42.352;23.808;2022-08-25T07:35:32;17.88;;;11.05;;
62977;SDS011;49073;42.352;23.808;2022-08-25T07:38:32;34.05;;;9.85;;
62977;SDS011;49073;42.352;23.808;2022-08-25T07:41:36;20.48;;;8.85;;
62977;SDS011;49073;42.352;23.808;2022-08-25T07:44:38;28.05;;;8.18;;
62977;SDS011;49073;42.352;23.808;2022-08-25T07:47:39;19.83;;;7.13;;
62977;SDS011;49073;42.352;23.808;2022-08-25T07:50:41;17.63;;;8.57;;
62977;SDS011;49073;42.352;23.808;2022-08-25T07:53:44;25.40;;;6.55;;
62977;SDS011;49073;42.352;23.808;2022-08-25T07:56:44;16.63;;;6.15;;
62977;SDS011;49073;42.352;23.808;2022-08-25T07:59:45;27.02;;;6.85;;
62977;SDS011;49073;42.352;23.808;2022-08-25T08:02:45;25.80;;;8.32;;
62977;SDS011;49073;42.352;23.808;2022-08-25T08:05:46;15.20;;;7.07;;
62977;SDS011;49073;42.352;23.808;2022-08-25T08:08:48;20.50;;;6.35;;
62977;SDS011;49073;42.352;23.808;2022-08-25T08:11:50;20.17;;;7.00;;
62977;SDS011;49073;42.352;23.808;2022-08-25T08:14:51;31.52;;;7.35;;
62977;SDS011;49073;42.352;23.808;2022-08-25T08:17:52;30.85;;;6.30;;
62977;SDS011;49073;42.352;23.808;2022-08-25T08:20:53;23.50;;;5.90;;
62977;SDS011;49073;42.352;23.808;2022-08-25T08:23:54;24.55;;;5.38;;
62977;SDS011;49073;42.352;23.808;2022-08-25T08:26:56;24.52;;;6.13;;
62977;SDS011;49073;42.352;23.808;2022-08-25T08:29:57;23.92;;;5.45;;
62977;SDS011;49073;42.352;23.808;2022-08-25T08:32:59;23.98;;;5.32;;
62977;SDS011;49073;42.352;23.808;2022-08-25T08:36:01;23.80;;;5.68;;
62977;SDS011;49073;42.352;23.808;2022-08-25T08:39:03;21.67;;;5.35;;
62977;SDS011;49073;42.352;23.808;2022-08-25T08:45:49;24.60;;;4.90;;
62977;SDS011;49073;42.352;23.808;2022-08-25T08:48:54;25.77;;;5.93;;
62977;SDS011;49073;42.352;23.808;2022-08-25T08:52:01;24.52;;;4.88;;
62977;SDS011;49073;42.352;23.808;2022-08-25T08:55:04;27.48;;;5.50;;
62977;SDS011;49073;42.352;23.808;2022-08-25T08:58:22;29.02;;;5.53;;
62977;SDS011;49073;42.352;23.808;2022-08-25T09:01:30;23.58;;;5.40;;
62977;SDS011;49073;42.352;23.808;2022-08-25T09:04:34;16.90;;;5.65;;
62977;SDS011;49073;42.352;23.808;2022-08-25T09:07:47;34.00;;;5.55;;
62977;SDS011;49073;42.352;23.808;2022-08-25T09:11:01;28.38;;;5.22;;
62977;SDS011;49073;42.352;23.808;2022-08-25T09:24:32;19.58;;;4.90;;
62977;SDS011;49073;42.352;23.808;2022-08-25T09:34:30;24.13;;;4.20;;
62977;SDS011;49073;42.352;23.808;2022-08-25T09:37:33;24.92;;;4.85;;
62977;SDS011;49073;42.352;23.808;2022-08-25T09:40:35;23.02;;;4.28;;
62977;SDS011;49073;42.352;23.808;2022-08-25T09:43:41;24.05;;;4.57;;
62977;SDS011;49073;42.352;23.808;2022-08-25T09:46:53;22.58;;;4.30;;
62977;SDS011;49073;42.352;23.808;2022-08-25T09:50:01;14.00;;;3.53;;
62977;SDS011;49073;42.352;23.808;2022-08-25T09:53:13;17.42;;;3.78;;
62977;SDS011;49073;42.352;23.808;2022-08-25T09:56:17;17.52;;;4.03;;
62977;SDS011;49073;42.352;23.808;2022-08-25T10:05:26;17.65;;;3.95;;
62977;SDS011;49073;42.352;23.808;2022-08-25T10:08:31;18.10;;;4.32;;
62977;SDS011;49073;42.352;23.808;2022-08-25T10:11:41;16.65;;;4.72;;
62977;SDS011;49073;42.352;23.808;2022-08-25T10:14:44;13.52;;;2.97;;
62977;SDS011;49073;42.352;23.808;2022-08-25T10:17:44;21.08;;;4.88;;
62977;SDS011;49073;42.352;23.808;2022-08-25T10:21:19;21.40;;;4.38;;
62977;SDS011;49073;42.352;23.808;2022-08-25T10:24:14;19.73;;;4.53;;
62977;SDS011;49073;42.352;23.808;2022-08-25T10:30:30;25.15;;;4.15;;
62977;SDS011;49073;42.352;23.808;2022-08-25T10:57:43;18.55;;;3.67;;
62977;SDS011;49073;42.352;23.808;2022-08-25T11:01:07;21.90;;;3.70;;
62977;SDS011;49073;42.352;23.808;2022-08-25T11:04:25;17.52;;;3.63;;
62977;SDS011;49073;42.352;23.808;2022-08-25T11:07:37;21.23;;;4.53;;
62977;SDS011;49073;42.352;23.808;2022-08-25T11:10:45;24.73;;;4.20;;
62977;SDS011;49073;42.352;23.808;2022-08-25T11:16:58;26.58;;;4.18;;
62977;SDS011;49073;42.352;23.808;2022-08-25T11:20:00;20.02;;;3.20;;
62977;SDS011;49073;42.352;23.808;2022-08-25T11:23:11;22.45;;;4.72;;
62977;SDS011;49073;42.352;23.808;2022-08-25T11:26:21;15.18;;;3.85;;
62977;SDS011;49073;42.352;23.808;2022-08-25T11:29:32;21.40;;;3.60;;
62977;SDS011;49073;42.352;23.808;2022-08-25T11:32:36;16.33;;;3.50;;
62977;SDS011;49073;42.352;23.808;2022-08-25T11:35:40;17.70;;;5.10;;
62977;SDS011;49073;42.352;23.808;2022-08-25T11:48:41;21.95;;;4.05;;
62977;SDS011;49073;42.352;23.808;2022-08-25T11:51:55;26.67;;;4.93;;
62977;SDS011;49073;42.352;23.808;2022-08-25T11:55:03;17.25;;;3.45;;
62977;SDS011;49073;42.352;23.808;2022-08-25T12:04:39;21.38;;;3.78;;
62977;SDS011;49073;42.352;23.808;2022-08-25T12:14:37;17.35;;;4.35;;
62977;SDS011;49073;42.352;23.808;2022-08-25T12:17:42;12.70;;;3.10;;
62977;SDS011;49073;42.352;23.808;2022-08-25T12:30:40;24.15;;;4.88;;
62977;SDS011;49073;42.352;23.808;2022-08-25T12:33:59;13.23;;;3.53;;
62977;SDS011;49073;42.352;23.808;2022-08-25T12:37:21;17.27;;;3.03;;
62977;SDS011;49073;42.352;23.808;2022-08-25T12:40:25;14.20;;;2.80;;
62977;SDS011;49073;42.352;23.808;2022-08-25T12:43:34;18.25;;;3.40;;
62977;SDS011;49073;42.352;23.808;2022-08-25T12:46:37;18.88;;;4.13;;
62977;SDS011;49073;42.352;23.808;2022-08-25T12:49:38;16.80;;;3.25;;
62977;SDS011;49073;42.352;23.808;2022-08-25T12:52:39;21.30;;;4.72;;
62977;SDS011;49073;42.352;23.808;2022-08-25T12:55:44;15.52;;;3.47;;
62977;SDS011;49073;42.352;23.808;2022-08-25T13:09:04;13.40;;;3.67;;
62977;SDS011;49073;42.352;23.808;2022-08-25T13:12:23;8.90;;;2.78;;
62977;SDS011;49073;42.352;23.808;2022-08-25T13:18:44;15.23;;;3.20;;
62977;SDS011;49073;42.352;23.808;2022-08-25T13:21:44;19.35;;;3.25;;
62977;SDS011;49073;42.352;23.808;2022-08-25T13:24:45;18.63;;;3.75;;
62977;SDS011;49073;42.352;23.808;2022-08-25T13:27:56;16.38;;;3.47;;
62977;SDS011;49073;42.352;23.808;2022-08-25T13:31:01;19.83;;;3.58;;
62977;SDS011;49073;42.352;23.808;2022-08-25T13:34:05;20.35;;;3.75;;
62977;SDS011;49073;42.352;23.808;2022-08-25T13:37:09;12.32;;;3.45;;
62977;SDS011;49073;42.352;23.808;2022-08-25T13:40:29;16.75;;;3.40;;
62977;SDS011;49073;42.352;23.808;2022-08-25T13:43:33;15.00;;;3.63;;
62977;SDS011;49073;42.352;23.808;2022-08-25T13:46:34;21.08;;;3.95;;
62977;SDS011;49073;42.352;23.808;2022-08-25T13:49:36;10.70;;;3.10;;
62977;SDS011;49073;42.352;23.808;2022-08-25T13:52:37;17.08;;;3.97;;
62977;SDS011;49073;42.352;23.808;2022-08-25T13:55:53;11.98;;;3.30;;
62977;SDS011;49073;42.352;23.808;2022-08-25T13:58:57;13.77;;;3.60;;
62977;SDS011;49073;42.352;23.808;2022-08-25T14:01:59;18.42;;;4.32;;
62977;SDS011;49073;42.352;23.808;2022-08-25T14:05:00;17.45;;;3.55;;
62977;SDS011;49073;42.352;23.808;2022-08-25T14:08:01;17.17;;;3.53;;
62977;SDS011;49073;42.352;23.808;2022-08-25T14:11:06;21.10;;;3.65;;
62977;SDS011;49073;42.352;23.808;2022-08-25T14:14:08;22.08;;;3.88;;
62977;SDS011;49073;42.352;23.808;2022-08-25T14:17:11;12.82;;;5.03;;
62977;SDS011;49073;42.352;23.808;2022-08-25T14:20:21;17.13;;;4.47;;
62977;SDS011;49073;42.352;23.808;2022-08-25T14:23:28;14.00;;;4.07;;
62977;SDS011;49073;42.352;23.808;2022-08-25T14:26:29;13.60;;;3.45;;
62977;SDS011;49073;42.352;23.808;2022-08-25T14:29:30;22.65;;;4.05;;
62977;SDS011;49073;42.352;23.808;2022-08-25T14:32:31;16.25;;;4.05;;
62977;SDS011;49073;42.352;23.808;2022-08-25T14:35:31;17.58;;;3.55;;
62977;SDS011;49073;42.352;23.808;2022-08-25T14:38:32;15.63;;;4.20;;
62977;SDS011;49073;42.352;23.808;2022-08-25T14:41:35;21.27;;;3.80;;
62977;SDS011;49073;42.352;23.808;2022-08-25T14:44:40;8.85;;;3.15;;
62977;SDS011;49073;42.352;23.808;2022-08-25T14:47:41;21.60;;;4.00;;
62977;SDS011;49073;42.352;23.808;2022-08-25T14:50:42;14.23;;;4.43;;
62977;SDS011;49073;42.352;23.808;2022-08-25T14:53:44;15.88;;;3.92;;
62977;SDS011;49073;42.352;23.808;2022-08-25T14:56:45;18.60;;;3.88;;
62977;SDS011;49073;42.352;23.808;2022-08-25T14:59:47;7.55;;;2.92;;
62977;SDS011;49073;42.352;23.808;2022-08-25T15:02:49;14.05;;;3.70;;
62977;SDS011;49073;42.352;23.808;2022-08-25T15:05:50;14.85;;;3.90;;
62977;SDS011;49073;42.352;23.808;2022-08-25T15:08:51;14.63;;;4.32;;
62977;SDS011;49073;42.352;23.808;2022-08-25T15:12:10;10.15;;;3.05;;
62977;SDS011;49073;42.352;23.808;2022-08-25T15:15:10;17.52;;;4.20;;
62977;SDS011;49073;42.352;23.808;2022-08-25T15:18:12;16.63;;;4.80;;
62977;SDS011;49073;42.352;23.808;2022-08-25T15:21:13;20.80;;;4.95;;
62977;SDS011;49073;42.352;23.808;2022-08-25T15:24:14;16.67;;;3.95;;
62977;SDS011;49073;42.352;23.808;2022-08-25T15:27:17;11.48;;;4.53;;
62977;SDS011;49073;42.352;23.808;2022-08-25T15:30:19;18.65;;;3.95;;
62977;SDS011;49073;42.352;23.808;2022-08-25T15:33:20;17.45;;;3.72;;
62977;SDS011;49073;42.352;23.808;2022-08-25T15:36:22;8.20;;;3.38;;
62977;SDS011;49073;42.352;23.808;2022-08-25T15:39:24;11.98;;;3.78;;
62977;SDS011;49073;42.352;23.808;2022-08-25T15:42:26;12.55;;;3.65;;
62977;SDS011;49073;42.352;23.808;2022-08-25T15:45:27;16.92;;;3.78;;
62977;SDS011;49073;42.352;23.808;2022-08-25T15:48:28;13.95;;;3.20;;
62977;SDS011;49073;42.352;23.808;2022-08-25T15:51:29;13.85;;;5.00;;
62977;SDS011;49073;42.352;23.808;2022-08-25T15:54:29;20.77;;;3.40;;
62977;SDS011;49073;42.352;23.808;2022-08-25T15:57:30;15.88;;;3.95;;
62977;SDS011;49073;42.352;23.808;2022-08-25T16:00:30;23.65;;;3.83;;
62977;SDS011;49073;42.352;23.808;2022-08-25T16:03:31;12.82;;;3.40;;
62977;SDS011;49073;42.352;23.808;2022-08-25T16:06:31;12.57;;;3.53;;
62977;SDS011;49073;42.352;23.808;2022-08-25T16:09:33;16.27;;;3.97;;
62977;SDS011;49073;42.352;23.808;2022-08-25T16:12:34;9.98;;;2.97;;
62977;SDS011;49073;42.352;23.808;2022-08-25T16:15:35;7.93;;;3.63;;
62977;SDS011;49073;42.352;23.808;2022-08-25T16:18:36;17.02;;;3.20;;
62977;SDS011;49073;42.352;23.808;2022-08-25T16:21:37;14.90;;;3.60;;
62977;SDS011;49073;42.352;23.808;2022-08-25T16:24:38;13.55;;;3.40;;
62977;SDS011;49073;42.352;23.808;2022-08-25T16:27:40;16.48;;;3.70;;
62977;SDS011;49073;42.352;23.808;2022-08-25T16:30:45;13.57;;;3.47;;
62977;SDS011;49073;42.352;23.808;2022-08-25T16:33:46;12.45;;;3.83;;
62977;SDS011;49073;42.352;23.808;2022-08-25T16:36:47;24.58;;;4.35;;
62977;SDS011;49073;42.352;23.808;2022-08-25T16:39:51;17.60;;;3.95;;
62977;SDS011;49073;42.352;23.808;2022-08-25T16:42:55;18.95;;;3.55;;
62977;SDS011;49073;42.352;23.808;2022-08-25T16:45:57;20.67;;;4.22;;
62977;SDS011;49073;42.352;23.808;2022-08-25T16:49:03;18.75;;;4.22;;
62977;SDS011;49073;42.352;23.808;2022-08-25T16:52:05;18.35;;;3.65;;
62977;SDS011;49073;42.352;23.808;2022-08-25T16:55:27;14.95;;;3.47;;
62977;SDS011;49073;42.352;23.808;2022-08-25T16:58:29;20.27;;;3.45;;
62977;SDS011;49073;42.352;23.808;2022-08-25T17:01:30;13.80;;;3.60;;
62977;SDS011;49073;42.352;23.808;2022-08-25T17:04:35;13.52;;;2.92;;
62977;SDS011;49073;42.352;23.808;2022-08-25T17:07:35;11.30;;;2.83;;
62977;SDS011;49073;42.352;23.808;2022-08-25T17:10:37;13.38;;;3.20;;
62977;SDS011;49073;42.352;23.808;2022-08-25T17:13:40;15.88;;;3.55;;
62977;SDS011;49073;42.352;23.808;2022-08-25T17:16:44;14.73;;;3.42;;
62977;SDS011;49073;42.352;23.808;2022-08-25T17:19:45;8.40;;;3.28;;
62977;SDS011;49073;42.352;23.808;2022-08-25T17:22:46;13.30;;;2.97;;
62977;SDS011;49073;42.352;23.808;2022-08-25T17:25:47;11.52;;;3.38;;
62977;SDS011;49073;42.352;23.808;2022-08-25T17:28:50;15.52;;;3.50;;
62977;SDS011;49073;42.352;23.808;2022-08-25T17:31:51;15.80;;;2.83;;
62977;SDS011;49073;42.352;23.808;2022-08-25T17:34:51;22.00;;;3.60;;
62977;SDS011;49073;42.352;23.808;2022-08-25T17:37:52;16.80;;;3.83;;
62977;SDS011;49073;42.352;23.808;2022-08-25T17:40:53;17.10;;;5.03;;
62977;SDS011;49073;42.352;23.808;2022-08-25T17:43:56;16.05;;;3.67;;
62977;SDS011;49073;42.352;23.808;2022-08-25T17:46:57;11.38;;;3.10;;
62977;SDS011;49073;42.352;23.808;2022-08-25T17:49:58;16.35;;;3.60;;
62977;SDS011;49073;42.352;23.808;2022-08-25T17:52:59;9.65;;;2.90;;
62977;SDS011;49073;42.352;23.808;2022-08-25T17:56:01;17.70;;;3.40;;
62977;SDS011;49073;42.352;23.808;2022-08-25T17:59:10;19.58;;;3.38;;
62977;SDS011;49073;42.352;23.808;2022-08-25T18:02:11;14.93;;;4.10;;
62977;SDS011;49073;42.352;23.808;2022-08-25T18:05:12;18.38;;;3.38;;
62977;SDS011;49073;42.352;23.808;2022-08-25T18:08:13;15.65;;;3.75;;
62977;SDS011;49073;42.352;23.808;2022-08-25T18:11:16;15.50;;;3.38;;
62977;SDS011;49073;42.352;23.808;2022-08-25T18:14:16;11.75;;;3.08;;
62977;SDS011;49073;42.352;23.808;2022-08-25T18:17:18;15.07;;;4.25;;
62977;SDS011;49073;42.352;23.808;2022-08-25T18:20:18;13.18;;;3.38;;
62977;SDS011;49073;42.352;23.808;2022-08-25T18:23:20;20.95;;;3.33;;
62977;SDS011;49073;42.352;23.808;2022-08-25T18:26:21;15.95;;;3.15;;
62977;SDS011;49073;42.352;23.808;2022-08-25T18:29:21;13.93;;;3.10;;
62977;SDS011;49073;42.352;23.808;2022-08-25T18:32:22;10.00;;;3.03;;
62977;SDS011;49073;42.352;23.808;2022-08-25T18:35:23;13.00;;;3.17;;
62977;SDS011;49073;42.352;23.808;2022-08-25T18:38:25;17.40;;;3.50;;
62977;SDS011;49073;42.352;23.808;2022-08-25T18:41:44;19.38;;;2.92;;
62977;SDS011;49073;42.352;23.808;2022-08-25T18:44:44;9.70;;;3.05;;
62977;SDS011;49073;42.352;23.808;2022-08-25T18:47:45;13.32;;;3.25;;
62977;SDS011;49073;42.352;23.808;2022-08-25T18:50:46;19.83;;;7.78;;
62977;SDS011;49073;42.352;23.808;2022-08-25T18:53:49;10.77;;;3.58;;
62977;SDS011;49073;42.352;23.808;2022-08-25T18:56:51;14.27;;;3.33;;
62977;SDS011;49073;42.352;23.808;2022-08-25T18:59:52;16.13;;;3.78;;
62977;SDS011;49073;42.352;23.808;2022-08-25T19:02:53;10.20;;;4.13;;
62977;SDS011;49073;42.352;23.808;2022-08-25T19:05:55;17.75;;;3.53;;
62977;SDS011;49073;42.352;23.808;2022-08-25T19:08:56;15.40;;;3.70;;
62977;SDS011;49073;42.352;23.808;2022-08-25T19:11:57;13.90;;;3.58;;
62977;SDS011;49073;42.352;23.808;2022-08-25T19:14:58;11.93;;;3.72;;
62977;SDS011;49073;42.352;23.808;2022-08-25T19:17:58;14.60;;;3.28;;
62977;SDS011;49073;42.352;23.808;2022-08-25T19:20:59;18.80;;;3.63;;
62977;SDS011;49073;42.352;23.808;2022-08-25T19:24:00;11.77;;;2.63;;
62977;SDS011;49073;42.352;23.808;2022-08-25T19:27:02;11.93;;;3.30;;
62977;SDS011;49073;42.352;23.808;2022-08-25T19:30:04;21.48;;;4.35;;
62977;SDS011;49073;42.352;23.808;2022-08-25T19:33:08;11.73;;;4.93;;
62977;SDS011;49073;42.352;23.808;2022-08-25T19:36:09;14.52;;;4.97;;